Flight Track Log - Related Links

Times and Time Zones

All times are in EST time to prevent confusion due to time zone crossing. See the EJA941 flight status page for this flight to view local times or setup timezone preferences in your user account.

Time Position Orientation Groundspeed Altitude Reporting Facility
EST Latitude Longitude Course Direction KTS MPH feet Rate Location/Type
Wed 05:28:26 PM 41.2378 -75.7042 124° Southeast 275 316 7,000  Level New York Center
Wed 05:29:26 PM 41.2439 -75.6025 85° East 270 311 7,000 500 Level New York Center
Wed 05:30:26 PM 41.2144 -75.5094 113° Southeast 270 311 8,000 500 Climbing New York Center
Wed 05:31:26 PM 41.1844 -75.4272 116° Southeast 276 318 8,000  Level New York Center
Wed 05:32:00 PM 41.2310 -75.3482 124° Southeast  Level Estimated
Wed 05:32:26 PM 41.1508 -75.3231 113° Southeast 276 318 8,000  Level New York Center
Wed 05:33:26 PM 41.1211 -75.2331 114° Southeast 276 318 8,000 -200 Level New York Center
Wed 05:34:26 PM 41.0892 -75.1372 114° Southeast 276 318 7,600 -950 Descending New York Center
Wed 05:35:26 PM 41.0778 -75.0483 100° East 276 318 6,100 -800 Descending New York Center
Wed 05:36:26 PM 41.0731 -74.9464 93° East 277 319 6,000 -50 Descending New York Center
Wed 05:37:26 PM 41.0669 -74.8303 94° East 282 325 6,000 -450 Level New York Center
Wed 05:38:26 PM 41.0636 -74.7419 93° East 277 319 5,100 -1,100 Descending New York Center
Wed 05:39:26 PM 41.0589 -74.6317 93° East 271 312 3,800 -1,050 Descending New York Center
Wed 05:40:26 PM 41.0533 -74.5489 95° East 266 306 3,000 -400 Descending New York Center
Wed 05:41:26 PM 41.0503 -74.4442 92° East 256 295 3,000  Level New York Center
Wed 05:42:26 PM 41.0428 -74.3531 96° East 256 295 3,000  Level New York Center
Wed 05:43:26 PM 41.0392 -74.2592 93° East 251 289 3,000 -350 Level New York Center
Wed 05:44:26 PM 41.0336 -74.1711 95° East 251 289 2,300 -500 Descending New York Center
Wed 05:45:26 PM 41.0333 -74.1000 90° East 199 229 2,000 -150 Descending New York TRACON
Wed 05:46:26 PM 40.9833 -74.0500 143° Southeast 163 188 2,000 -50 Level New York TRACON
Wed 05:47:26 PM 40.9500 -74.0500 180° South 154 177 1,900 -450 Descending New York TRACON
Wed 05:48:26 PM 40.9167 -74.0500 180° South 136 157 1,100 -714 Descending New York TRACON
Wed 05:49:32 PM 40.8667 -74.0500 180° South 122 140 400 -636 Descending New York TRACON
Wed 05:51:00 PM 40.8500 -74.0500 101° East  Level FlightAware Approximate
Wed 05:58:00 PM 40.8501 -74.0608 101° East  Level Estimated

Login

Don't have an account? Register now (free) for customized features, flight alerts, and more!